Henderson, Louisiana
Current Conditions -  °F | °C
As of 7:01 PM on Monday 22 Dec 2014 (Local Time) from KLFT Reporting Station
Broken Clouds Broken Clouds  
Wind Chill: 69°   Ceiling: 1300
Heat Index: 69°   Visibility: 10mi
Dew Point: 65°   Wind: 8mph
Humidity: 87%   Direction: 210°SSW
Pressure: 29.69"   Gusts: NA
Location:  30.2731°N, 91.9325°W
Report Text: KLFT 230101Z 21007KT 10SM BKN013 21/18 A2969 RMK AO2 T02060183
Loading
Personal Weather Stations






























Interactive Weather Map New forecast layout! Learn more

10-Day Weather Forecast

Advertisements
Track Severe Weather on mobile